createdAt,value
2022-08-25T00:00:34.345Z,24.73
2022-08-25T00:05:36.444Z,25.77
2022-08-25T00:10:39.943Z,25.88
2022-08-25T00:15:41.818Z,24.95
2022-08-25T00:20:48.845Z,26.33
2022-08-25T00:25:51.500Z,27.27
2022-08-25T00:30:53.345Z,25.38
2022-08-25T00:35:56.478Z,24.00
2022-08-25T00:41:07.150Z,26.35
2022-08-25T00:46:10.208Z,24.40
2022-08-25T00:51:16.897Z,25.15
2022-08-25T00:56:19.401Z,26.17
2022-08-25T01:01:23.902Z,28.42
2022-08-25T01:06:27.409Z,26.55
2022-08-25T01:11:29.224Z,23.00
2022-08-25T01:16:31.215Z,30.67
2022-08-25T01:21:46.754Z,26.45
2022-08-25T01:26:48.578Z,28.73
2022-08-25T01:31:54.826Z,26.95
2022-08-25T01:36:58.286Z,25.15
2022-08-25T01:42:03.142Z,25.50
2022-08-25T01:47:06.171Z,25.45
2022-08-25T01:52:13.324Z,26.90
2022-08-25T01:57:15.185Z,25.25
2022-08-25T02:02:18.435Z,28.13
2022-08-25T02:07:20.704Z,25.70
2022-08-25T02:12:22.519Z,27.25
2022-08-25T02:17:24.602Z,28.80
2022-08-25T02:22:27.062Z,26.80
2022-08-25T02:27:29.539Z,25.55
2022-08-25T02:32:31.574Z,28.60
2022-08-25T02:37:33.441Z,26.00
2022-08-25T02:42:35.308Z,28.13
2022-08-25T02:47:37.334Z,29.02
2022-08-25T02:52:41.176Z,27.10
2022-08-25T02:57:43.296Z,31.02
2022-08-25T03:02:45.194Z,28.15
2022-08-25T03:07:47.060Z,31.20
2022-08-25T03:12:49.313Z,23.20
2022-08-25T03:17:51.678Z,20.88
2022-08-25T03:22:53.643Z,22.50
2022-08-25T03:27:55.595Z,22.08
2022-08-25T03:32:57.514Z,25.33
2022-08-25T03:38:00.578Z,28.58
2022-08-25T03:43:03.092Z,28.40
2022-08-25T03:48:05.094Z,26.42
2022-08-25T03:53:07.669Z,27.88
2022-08-25T03:58:12.765Z,28.60
2022-08-25T04:03:14.694Z,28.33
2022-08-25T04:08:16.648Z,30.75
2022-08-25T04:13:21.532Z,29.23
2022-08-25T04:18:23.371Z,28.33
2022-08-25T04:23:25.193Z,30.60
2022-08-25T04:28:27.352Z,30.65
2022-08-25T04:33:29.276Z,34.45
2022-08-25T04:38:32.384Z,33.92
2022-08-25T04:43:36.647Z,30.85
2022-08-25T04:48:42.319Z,32.33
2022-08-25T04:53:44.307Z,27.27
2022-08-25T04:58:47.227Z,31.83
2022-08-25T05:03:55.543Z,32.25
2022-08-25T05:08:58.806Z,32.00
2022-08-25T05:14:02.157Z,32.13
2022-08-25T05:19:04.885Z,32.83
2022-08-25T05:24:08.161Z,37.67
2022-08-25T05:29:11.060Z,36.90
2022-08-25T05:34:12.937Z,36.92
2022-08-25T05:39:14.921Z,33.85
2022-08-25T05:44:20.820Z,37.33
2022-08-25T05:49:23.319Z,31.77
2022-08-25T05:54:25.472Z,32.92
2022-08-25T05:59:27.403Z,36.15
2022-08-25T06:04:29.273Z,42.17
2022-08-25T06:09:31.173Z,50.15
2022-08-25T06:14:33.739Z,36.70
2022-08-25T06:19:35.743Z,45.65
2022-08-25T06:24:41.638Z,40.72
2022-08-25T06:29:43.567Z,38.78
2022-08-25T06:34:45.444Z,42.70
2022-08-25T06:39:47.346Z,40.28
2022-08-25T06:44:49.251Z,46.08
2022-08-25T06:49:51.105Z,48.47
2022-08-25T06:54:53.367Z,45.67
2022-08-25T06:59:55.287Z,42.45
2022-08-25T07:04:58.814Z,41.13
2022-08-25T07:10:00.641Z,37.67
2022-08-25T07:15:20.419Z,33.97
2022-08-25T07:25:24.524Z,32.45
2022-08-25T07:30:26.564Z,29.77
2022-08-25T07:35:37.641Z,22.88
2022-08-25T07:40:43.024Z,29.58
2022-08-25T07:45:48.992Z,26.42
2022-08-25T07:50:51.441Z,22.92
2022-08-25T07:55:53.757Z,21.52
2022-08-25T08:00:55.722Z,19.20
2022-08-25T08:05:58.172Z,17.80
2022-08-25T08:11:05.157Z,24.17
2022-08-25T08:16:11.959Z,22.42
2022-08-25T08:21:20.128Z,21.98
2022-08-25T08:26:31.742Z,21.70
2022-08-25T08:31:38.686Z,17.58
2022-08-25T08:36:40.866Z,20.77
2022-08-25T08:42:19.843Z,21.30
2022-08-25T08:47:46.739Z,19.30
2022-08-25T08:53:08.153Z,16.83
2022-08-25T08:58:19.799Z,21.67
2022-08-25T09:03:55.130Z,19.13
2022-08-25T09:09:02.107Z,17.40
2022-08-25T09:14:30.493Z,19.38
2022-08-25T09:19:41.934Z,20.05
2022-08-25T09:25:09.114Z,14.75
2022-08-25T09:30:17.284Z,19.92
2022-08-25T09:35:29.254Z,18.80
2022-08-25T09:40:34.852Z,24.20
2022-08-25T09:45:49.824Z,25.05
2022-08-25T09:51:01.166Z,14.93
2022-08-25T09:56:06.878Z,19.33
2022-08-25T10:01:20.887Z,15.55
2022-08-25T10:06:25.797Z,15.18
2022-08-25T10:11:44.544Z,20.85
2022-08-25T10:16:48.983Z,16.40
2022-08-25T10:22:11.117Z,17.73
2022-08-25T10:27:35.863Z,14.00
2022-08-25T10:33:06.913Z,17.80
2022-08-25T10:38:33.435Z,22.35
2022-08-25T10:43:48.574Z,18.73
2022-08-25T10:49:12.783Z,18.67
2022-08-25T10:54:25.393Z,19.52
2022-08-25T10:59:58.455Z,18.02
2022-08-25T11:05:28.895Z,18.92
2022-08-25T11:10:48.010Z,16.17
2022-08-25T11:16:19.619Z,19.00
2022-08-25T11:21:42.230Z,20.92
2022-08-25T11:26:51.821Z,19.15
2022-08-25T11:31:54.677Z,21.98
2022-08-25T11:37:01.322Z,20.30
2022-08-25T11:42:43.296Z,24.25
2022-08-25T11:47:52.236Z,19.85
2022-08-25T11:52:57.816Z,17.00
2022-08-25T11:58:14.995Z,21.00
2022-08-25T12:03:37.066Z,20.15
2022-08-25T12:09:00.754Z,19.83
2022-08-25T12:14:28.857Z,24.27
2022-08-25T12:19:53.391Z,17.35
2022-08-25T12:25:17.550Z,21.05
2022-08-25T12:30:30.735Z,17.58
2022-08-25T12:35:56.235Z,13.73
2022-08-25T12:41:04.796Z,20.02
2022-08-25T12:46:29.849Z,19.42
2022-08-25T12:51:48.831Z,19.00
2022-08-25T12:56:59.302Z,20.58
2022-08-25T13:02:13.573Z,17.17
2022-08-25T13:07:29.033Z,15.55
2022-08-25T13:12:46.788Z,19.33
2022-08-25T13:17:48.698Z,19.33
2022-08-25T13:23:06.521Z,17.85
2022-08-25T13:28:40.713Z,19.52
2022-08-25T13:33:59.096Z,16.50
2022-08-25T13:39:12.500Z,19.45
2022-08-25T13:44:16.128Z,20.17
2022-08-25T13:49:27.053Z,21.60
2022-08-25T13:54:41.957Z,20.55
2022-08-25T13:59:49.203Z,15.90
2022-08-25T14:04:52.835Z,15.02
2022-08-25T14:09:58.798Z,18.02
2022-08-25T14:15:02.136Z,14.45
2022-08-25T14:20:06.040Z,19.15
2022-08-25T14:25:08.767Z,23.65
2022-08-25T14:30:13.008Z,16.67
2022-08-25T14:35:17.440Z,19.20
2022-08-25T14:40:20.076Z,16.90
2022-08-25T14:45:22.036Z,16.08
2022-08-25T14:50:24.837Z,16.33
2022-08-25T14:55:31.532Z,15.10
2022-08-25T15:00:37.425Z,16.05
2022-08-25T15:05:40.685Z,17.88
2022-08-25T15:10:43.448Z,18.55
2022-08-25T15:15:52.743Z,15.45
2022-08-25T15:20:55.036Z,14.25
2022-08-25T15:25:57.616Z,16.45
2022-08-25T15:31:00.058Z,20.73
2022-08-25T15:36:02.829Z,20.13
2022-08-25T15:41:06.163Z,20.63
2022-08-25T15:46:14.354Z,16.77
2022-08-25T15:51:19.022Z,16.88
2022-08-25T15:56:26.510Z,20.60
2022-08-25T16:01:30.688Z,17.17
2022-08-25T16:06:34.010Z,15.18
2022-08-25T16:11:35.884Z,20.50
2022-08-25T16:16:41.795Z,16.33
2022-08-25T16:21:47.454Z,18.95
2022-08-25T16:26:51.797Z,20.98
2022-08-25T16:31:55.220Z,14.35
2022-08-25T16:36:59.218Z,21.05
2022-08-25T16:42:03.544Z,20.33
2022-08-25T16:47:08.983Z,23.77
2022-08-25T16:52:30.333Z,18.52
2022-08-25T16:57:32.823Z,18.88
2022-08-25T17:02:34.866Z,20.00
2022-08-25T17:07:36.940Z,18.05
2022-08-25T17:12:39.678Z,18.88
2022-08-25T17:17:42.405Z,17.25
2022-08-25T17:22:44.260Z,19.27
2022-08-25T17:27:46.110Z,22.23
2022-08-25T17:32:51.093Z,23.77
2022-08-25T17:37:54.432Z,19.38
2022-08-25T17:42:56.766Z,18.80
2022-08-25T17:47:59.260Z,15.38
2022-08-25T17:53:01.254Z,24.25
2022-08-25T17:58:03.248Z,19.17
2022-08-25T18:03:06.401Z,23.05
2022-08-25T18:08:10.516Z,18.40
2022-08-25T18:13:13.389Z,17.58
2022-08-25T18:18:15.975Z,16.98
2022-08-25T18:23:19.681Z,14.48
2022-08-25T18:28:21.623Z,15.25
2022-08-25T18:33:23.665Z,12.38
2022-08-25T18:38:44.035Z,16.52
2022-08-25T18:43:47.361Z,13.00
2022-08-25T18:48:52.568Z,18.48
2022-08-25T18:53:59.155Z,22.33
2022-08-25T18:59:03.323Z,20.70
2022-08-25T19:04:05.227Z,14.43
2022-08-25T19:09:07.120Z,18.27
2022-08-25T19:14:12.456Z,17.23
2022-08-25T19:19:14.672Z,21.50
2022-08-25T19:24:16.756Z,19.27
2022-08-25T19:29:18.900Z,15.05
2022-08-25T19:34:28.265Z,24.10
2022-08-25T19:39:34.387Z,18.63
2022-08-25T19:44:36.371Z,19.05
2022-08-25T19:49:38.479Z,22.23
2022-08-25T19:54:46.363Z,30.58
2022-08-25T19:59:48.344Z,26.83
2022-08-25T20:04:53.400Z,24.17
2022-08-25T20:09:56.331Z,20.30
2022-08-25T20:15:00.117Z,19.77
2022-08-25T20:20:05.933Z,20.63
2022-08-25T20:25:13.469Z,21.23
2022-08-25T20:30:27.596Z,21.25
2022-08-25T20:35:29.509Z,20.55
2022-08-25T20:40:31.480Z,17.00
2022-08-25T20:45:33.671Z,21.08
2022-08-25T20:50:38.827Z,17.92
2022-08-25T20:55:42.646Z,18.05
2022-08-25T21:00:46.389Z,20.63
2022-08-25T21:05:48.227Z,23.80
2022-08-25T21:10:55.431Z,20.48
2022-08-25T21:15:57.522Z,19.85
2022-08-25T21:21:11.352Z,22.77
2022-08-25T21:26:24.724Z,23.75
2022-08-25T21:31:29.466Z,28.27
2022-08-25T21:36:32.342Z,23.30
2022-08-25T21:41:36.875Z,23.67
2022-08-25T21:46:39.066Z,19.92
2022-08-25T21:51:44.635Z,26.02
2022-08-25T21:56:59.493Z,23.17
2022-08-25T22:02:04.814Z,25.98
2022-08-25T22:07:08.955Z,19.33
2022-08-25T22:12:10.777Z,20.38
2022-08-25T22:17:16.917Z,26.92
2022-08-25T22:22:20.956Z,22.47
2022-08-25T22:27:23.687Z,27.73
2022-08-25T22:32:25.597Z,23.40
2022-08-25T22:37:27.769Z,23.08
2022-08-25T22:42:32.230Z,22.60
2022-08-25T22:47:33.913Z,24.45
2022-08-25T22:52:35.629Z,29.98
2022-08-25T22:57:37.631Z,26.63
2022-08-25T23:02:42.294Z,25.23
2022-08-25T23:07:43.924Z,23.15
2022-08-25T23:12:45.616Z,23.95
2022-08-25T23:17:47.309Z,21.83
2022-08-25T23:22:50.179Z,24.15
2022-08-25T23:27:55.335Z,20.13
2022-08-25T23:32:57.026Z,29.55
2022-08-25T23:37:58.705Z,24.50
2022-08-25T23:43:00.932Z,22.65
2022-08-25T23:48:05.216Z,24.05
2022-08-25T23:53:08.096Z,21.60
2022-08-25T23:58:10.706Z,25.63
